Latest Weather Observations for Braidwood

IDN60801

Issued at 7:32 am EST Friday 26 May 2017 (issued every 30 minutes, with the page automatically refreshed every 10 minutes)

About weather observations | Map of weather stations | Latest weather observations for NSW | Other Formats
Station Details ID: 069132 Name: BRAIDWOOD RACECOURSE AWS Lat: -35.43 Lon: 149.78 Height: 665.2 m
Data from the previous 72 hours. | See also: Recent months at Braidwood
Date/Time
EST
Temp
°C
App
Temp
°C
Dew
Point
°C
Rel
Hum
%
Delta-T
°C
Wind Press
QNH
hPa
Press
MSL
hPa
Rain since
9am
mm
Dir  Spd
km/h
Gust
km/h
Spd
kts
Gust
kts
26/07:30am -1.0 -3.2 -1.4 97 0.1 CALM 0 0 0 0 1022.2 1022.3 0.0
26/07:00am -0.8 -3.0 -1.2 97 0.1 CALM 0 0 0 0 1021.8 1022.0 0.0
26/06:54am -0.6 -2.7 -1.0 97 0.1 CALM 0 0 0 0 1021.7 1021.9 0.0
26/06:38am -0.8 -3.0 -1.2 97 0.1 CALM 0 0 0 0 1021.6 1021.7 0.0
26/06:30am -0.7 -2.8 -1.1 97 0.1 CALM 0 0 0 0 1021.5 1021.6 0.0
26/06:00am 0.1 -1.9 -0.3 97 0.2 CALM 0 0 0 0 1021.3 1021.4 0.0
26/05:30am 0.3 -1.7 -0.1 97 0.2 CALM 0 0 0 0 1020.8 1020.9 0.0
26/05:00am 0.3 -1.7 -0.1 97 0.1 CALM 0 0 0 0 1020.6 1020.7 0.0
26/04:30am 0.2 -1.8 -0.2 97 0.1 CALM 0 0 0 0 1020.3 1020.4 0.0
26/04:00am 0.4 -1.6 0.0 97 0.2 CALM 0 0 0 0 1020.1 1020.2 0.0
26/03:30am 0.7 -1.2 0.3 97 0.2 CALM 0 0 0 0 1020.1 1020.2 0.0
26/03:21am 1.0 -0.9 0.6 97 0.2 CALM 0 0 0 0 1020.1 1020.2 0.0
26/03:04am 1.2 -0.7 0.8 97 0.2 CALM 0 0 0 0 1020.1 1020.2 0.0
26/03:00am 1.2 -0.7 0.8 97 0.2 CALM 0 0 0 0 1020.2 1020.3 0.0
26/02:30am 1.4 -0.4 1.0 97 0.2 CALM 0 0 0 0 1020.3 1020.4 0.0
26/02:00am 1.5 -0.3 0.9 96 0.2 CALM 0 0 0 0 1020.1 1020.2 0.0
26/01:40am 0.8 -1.9 0.1 95 0.3 S 4 4 2 2 1020.0 1020.1 0.0
26/01:30am 1.0 -0.9 0.6 97 0.2 CALM 0 4 0 2 1019.9 1020.0 0.0
26/01:15am 2.4 0.7 2.0 97 0.2 CALM 0 0 0 0 1020.0 1020.1 0.0
26/01:00am 1.9 0.1 1.3 96 0.2 CALM 0 0 0 0 1020.0 1020.1 0.0
26/12:43am 1.7 -0.5 1.1 96 0.2 SSE 2 4 1 2 1020.0 1020.1 0.0
26/12:30am 3.5 1.6 3.1 97 0.2 NNE 2 6 1 3 1020.2 1020.3 0.0
26/12:00am 2.8 1.2 2.2 96 0.2 CALM 0 4 0 2 1020.2 1020.3 0.0
 
Date/Time
EST
Temp
°C
App
Temp
°C
Dew
Point
°C
Rel
Hum
%
Delta-T
°C
Wind Press
QNH
hPa
Press
MSL
hPa
Rain since
9am
mm
Dir  Spd
km/h
Gust
km/h
Spd
kts
Gust
kts
25/11:30pm 3.0 1.4 2.4 96 0.2 CALM 0 0 0 0 1020.1 1020.2 0.0
25/11:00pm 3.8 2.4 3.4 97 0.2 CALM 0 0 0 0 1020.0 1020.1 0.0
25/10:30pm 3.2 1.6 2.6 96 0.3 CALM 0 0 0 0 1020.1 1020.2 0.0
25/10:19pm 2.8 1.2 2.2 96 0.2 CALM 0 0 0 0 1020.2 1020.3 0.0
25/10:02pm 2.1 0.3 1.4 95 0.3 CALM 0 0 0 0 1020.2 1020.3 0.0
25/10:00pm 2.1 0.3 1.4 95 0.3 CALM 0 0 0 0 1020.2 1020.3 0.0
25/09:57pm 2.1 0.3 1.4 95 0.3 CALM 0 0 0 0 1020.2 1020.3 0.0
25/09:44pm 2.6 0.9 1.9 95 0.3 CALM 0 0 0 0 1020.0 1020.1 0.0
25/09:30pm 3.6 2.1 2.9 95 0.3 CALM 0 0 0 0 1020.0 1020.1 0.0
25/09:00pm 3.7 2.2 2.8 94 0.4 CALM 0 0 0 0 1020.1 1020.2 0.0
25/08:30pm 5.4 4.2 4.7 95 0.3 CALM 0 0 0 0 1020.0 1020.1 0.0
25/08:00pm 5.1 3.7 3.6 90 0.7 CALM 0 0 0 0 1019.9 1020.0 0.0
25/07:30pm 6.4 5.2 4.7 89 0.8 CALM 0 0 0 0 1019.7 1019.8 0.0
25/07:00pm 7.7 6.7 5.7 87 0.9 CALM 0 2 0 1 1019.6 1019.7 0.0
25/06:30pm 8.6 6.0 6.1 84 1.2 NW 9 13 5 7 1019.3 1019.4 0.0
25/06:00pm 8.8 6.7 6.6 86 1.1 NW 7 11 4 6 1019.2 1019.3 0.0
25/05:30pm 8.8 7.0 5.2 78 1.7 NNW 4 9 2 5 1019.2 1019.3 0.0
25/05:00pm 10.7 8.8 6.8 77 1.9 WNW 6 11 3 6 1019.1 1019.1 0.0
25/04:30pm 12.5 10.6 6.5 67 3.0 NNW 6 11 3 6 1019.0 1019.0 0.0
25/04:00pm 13.8 11.9 6.7 62 3.5 NNW 6 13 3 7 1018.7 1018.8 0.0
25/03:30pm 13.8 11.6 6.4 61 3.7 N 7 13 4 7 1018.7 1018.8 0.0
25/03:00pm 13.9 12.0 6.5 61 3.7 N 6 13 3 7 1018.8 1018.9 0.0
25/02:30pm 13.4 11.2 6.3 62 3.5 N 7 13 4 7 1018.8 1018.9 0.0
25/02:00pm 14.1 12.0 6.7 61 3.7 N 7 13 4 7 1019.3 1019.4 0.0
25/01:30pm 13.7 11.6 5.8 59 3.9 NNE 6 11 3 6 1019.4 1019.5 0.0
25/01:00pm 13.5 11.2 5.9 60 3.7 N 7 15 4 8 1019.6 1019.7 0.0
25/12:30pm 13.5 11.2 5.9 60 3.7 NNW 7 13 4 7 1019.8 1019.9 0.0
25/12:00pm 13.2 11.3 6.5 64 3.3 N 6 9 3 5 1020.1 1020.2 0.0
25/11:30am 12.0 9.9 5.9 66 3.0 NNE 6 11 3 6 1020.9 1021.0 0.0
25/11:00am 11.3 9.6 5.8 69 2.6 N 4 7 2 4 1021.3 1021.4 0.0
25/10:30am 9.5 7.7 5.5 76 1.9 NNE 4 6 2 3 1021.6 1021.7 0.0
25/10:00am 8.4 6.6 5.5 82 1.4 NNW 4 7 2 4 1021.8 1022.0 0.0
25/09:30am 7.2 5.9 5.8 91 0.7 N 2 6 1 3 1021.6 1021.7 0.0
25/09:00am 4.6 3.3 4.2 97 0.2 CALM 0 0 0 0 1021.6 1021.7 -
25/08:30am 2.0 0.3 1.6 97 0.2 CALM 0 6 0 3 1021.6 1021.7 -
25/08:00am -0.1 -2.2 -0.5 97 0.1 CALM 0 0 0 0 1021.3 1021.4 -
25/07:30am -0.5 -2.6 -0.8 98 0.1 CALM 0 0 0 0 1021.1 1021.2 -
25/07:00am -0.7 -2.8 -1.1 97 0.1 CALM 0 0 0 0 1020.8 1020.9 -
25/06:39am -1.0 -3.2 -1.4 97 0.1 CALM 0 0 0 0 1020.7 1020.8 -
25/06:30am -0.9 -3.1 -1.3 97 0.1 CALM 0 0 0 0 1020.6 1020.7 -
25/06:00am -1.1 -3.3 -1.5 97 0.1 CALM 0 0 0 0 1020.2 1020.3 -
25/05:30am -0.4 -2.5 -0.8 97 0.1 CALM 0 0 0 0 1019.8 1019.9 -
25/05:00am -1.2 -3.5 -2.0 94 0.2 CALM 0 0 0 0 1019.7 1019.8 -
25/04:30am -0.1 -2.2 -0.7 96 0.2 CALM 0 0 0 0 1019.7 1019.8 -
25/04:00am -0.2 -2.3 -0.8 96 0.2 CALM 0 0 0 0 1019.8 1019.9 -
25/03:30am -0.6 -2.8 -1.3 95 0.2 CALM 0 0 0 0 1019.5 1019.6 -
25/03:00am 0.3 -1.7 -0.3 96 0.2 CALM 0 0 0 0 1019.6 1019.7 0.0
25/02:30am 1.9 0.1 1.5 97 0.2 CALM 0 0 0 0 1019.7 1019.8 -
25/02:00am 0.2 -1.9 -0.5 95 0.3 CALM 0 0 0 0 1019.5 1019.6 -
25/01:30am 1.0 -0.9 0.4 96 0.2 CALM 0 0 0 0 1019.6 1019.7 -
25/01:00am 1.1 -0.8 0.4 95 0.3 CALM 0 0 0 0 1019.5 1019.6 -
25/12:30am 1.5 -0.4 0.6 94 0.3 CALM 0 0 0 0 1019.6 1019.7 -
25/12:00am 1.3 -0.7 0.1 92 0.5 CALM 0 0 0 0 1019.5 1019.6 -
 
Date/Time
EST
Temp
°C
App
Temp
°C
Dew
Point
°C
Rel
Hum
%
Delta-T
°C
Wind Press
QNH
hPa
Press
MSL
hPa
Rain since
9am
mm
Dir  Spd
km/h
Gust
km/h
Spd
kts
Gust
kts
24/11:30pm 2.1 0.3 1.1 93 0.4 CALM 0 0 0 0 1019.5 1019.6 -
24/11:00pm 1.9 -0.1 0.1 88 0.7 CALM 0 0 0 0 1019.4 1019.5 -
24/10:30pm 3.0 1.2 1.2 88 0.7 CALM 0 4 0 2 1019.3 1019.4 -
24/10:00pm 4.8 2.1 2.7 86 0.9 ENE 6 9 3 5 1019.1 1019.1 -
24/09:30pm 5.8 3.1 2.4 79 1.4 NNW 6 6 3 3 1018.8 1018.9 -
24/09:00pm 5.7 4.2 2.9 82 1.2 CALM 0 2 0 1 1018.7 1018.8 0.0
24/08:30pm 6.9 3.8 3.7 80 1.4 NW 9 11 5 6 1018.6 1018.7 -
24/08:00pm 7.4 5.6 3.5 76 1.7 WNW 2 6 1 3 1018.4 1018.5 -
24/07:30pm 7.9 4.0 3.6 74 1.9 WNW 13 15 7 8 1018.2 1018.3 -
24/07:00pm 8.4 4.6 4.0 74 2.0 W 13 17 7 9 1017.8 1017.8 -
24/06:30pm 9.4 6.0 4.0 69 2.5 WNW 11 13 6 7 1017.5 1017.5 -
24/06:00pm 7.9 4.8 3.8 75 1.8 WNW 9 15 5 8 1016.8 1016.9 -
24/05:30pm 10.1 7.0 3.6 64 3.0 NW 9 13 5 7 1016.3 1016.3 -
24/05:00pm 11.2 7.0 3.7 60 3.5 WNW 15 22 8 12 1015.6 1015.7 -
24/04:30pm 12.3 7.1 3.5 55 4.1 WNW 20 28 11 15 1015.2 1015.2 -
24/04:00pm 13.6 9.0 3.7 51 4.6 WNW 17 24 9 13 1014.9 1014.9 -
24/03:30pm 14.4 9.8 3.5 48 5.1 WNW 17 30 9 16 1014.4 1014.4 -
24/03:00pm 14.6 8.7 3.7 48 5.2 WNW 24 33 13 18 1013.7 1013.7 -
24/02:30pm 14.0 8.1 4.0 51 4.7 WNW 24 33 13 18 1013.6 1013.6 -
24/02:00pm 14.2 9.6 3.9 50 4.9 NW 17 28 9 15 1013.7 1013.7 -
24/01:30pm 14.1 7.8 3.6 49 4.9 WNW 26 37 14 20 1013.6 1013.6 -
24/01:00pm 14.3 8.7 3.7 49 5.0 WNW 22 30 12 16 1013.5 1013.5 0.0
24/12:30pm 15.1 8.8 3.9 47 5.3 WNW 26 43 14 23 1013.6 1013.6 0.0
24/12:00pm 14.6 7.1 4.6 51 4.8 WNW 33 52 18 28 1013.6 1013.6 0.0
24/11:59am 14.7 7.3 5.0 52 4.7 WNW 33 52 18 28 1013.6 1013.6 0.0
24/11:30am 14.6 8.7 5.9 56 4.3 WNW 26 37 14 20 1014.0 1014.1 0.0
24/11:00am 14.2 9.7 6.3 59 3.9 WNW 19 30 10 16 1014.7 1014.7 0.0
24/10:30am 14.0 9.0 6.6 61 3.7 WNW 22 33 12 18 1014.8 1014.8 0.0
24/10:00am 14.5 11.2 8.2 66 3.3 WNW 15 24 8 13 1014.5 1014.5 0.0
24/09:30am 13.3 11.2 8.4 72 2.5 WNW 9 17 5 9 1014.8 1014.8 0.0
24/09:00am 13.1 12.2 9.4 78 1.9 NNW 4 7 2 4 1014.5 1014.5 1.8
24/08:30am 11.5 10.3 9.4 87 1.1 NW 6 7 3 4 1014.7 1014.7 1.8
24/08:00am 10.6 9.3 9.2 91 0.7 WNW 6 7 3 4 1014.9 1014.9 1.8
24/07:30am 9.2 7.7 8.3 94 0.5 WNW 6 9 3 5 1014.6 1014.6 1.6
24/07:00am 9.2 7.7 8.3 94 0.5 NNW 6 9 3 5 1014.2 1014.2 1.6
24/06:30am 10.0 8.5 9.2 95 0.4 NNW 7 13 4 7 1014.0 1014.1 1.6
24/06:00am 10.3 9.1 9.7 96 0.3 N 6 11 3 6 1014.2 1014.2 1.6
24/05:30am 9.8 8.5 9.2 96 0.3 NNE 6 9 3 5 1013.9 1013.9 1.6
24/05:00am 10.2 9.0 9.6 96 0.3 NNE 6 9 3 5 1014.3 1014.3 1.6
24/04:30am 9.7 8.4 9.1 96 0.3 NW 6 11 3 6 1014.0 1014.1 0.0
24/04:00am 8.7 8.2 7.8 94 0.4 CALM 0 4 0 2 1013.4 1013.4 0.0
24/03:30am 9.0 7.8 8.1 94 0.4 NNW 4 9 2 5 1013.9 1013.9 0.0
24/03:00am 9.7 8.1 8.6 93 0.6 NW 7 11 4 6 1014.5 1014.5 0.0
24/02:30am 10.4 8.7 9.8 96 0.3 NW 9 15 5 8 1014.9 1014.9 0.0
24/02:00am 9.6 8.0 8.8 95 0.4 NW 7 9 4 5 1014.9 1014.9 0.0
24/01:30am 8.1 7.1 7.3 95 0.4 NW 2 9 1 5 1015.3 1015.4 0.0
24/01:00am 7.8 7.0 6.7 93 0.5 CALM 0 0 0 0 1016.2 1016.2 0.0
24/12:30am 8.3 7.6 6.9 91 0.7 CALM 0 0 0 0 1016.3 1016.3 0.0
24/12:00am 9.5 9.1 8.1 91 0.7 CALM 0 4 0 2 1016.8 1016.9 0.0
 
Date/Time
EST
Temp
°C
App
Temp
°C
Dew
Point
°C
Rel
Hum
%
Delta-T
°C
Wind Press
QNH
hPa
Press
MSL
hPa
Rain since
9am
mm
Dir  Spd
km/h
Gust
km/h
Spd
kts
Gust
kts
23/11:30pm 9.4 8.2 8.0 91 0.7 N 4 7 2 4 1017.2 1017.3 0.0
23/11:00pm 9.5 8.7 8.3 92 0.6 NNE 2 4 1 2 1017.6 1017.6 0.0
23/10:30pm 9.1 7.3 7.9 92 0.6 NNE 7 13 4 7 1017.9 1018.0 0.0
23/10:00pm 9.1 8.3 8.2 94 0.4 N 2 7 1 4 1018.1 1018.2 0.0
23/09:30pm 8.3 7.2 6.8 90 0.7 NNW 2 6 1 3 1018.1 1018.2 0.0
23/09:00pm 8.9 7.9 7.4 90 0.7 NNW 2 6 1 3 1018.2 1018.3 0.0
23/08:30pm 9.3 8.6 8.4 94 0.5 NNE 2 4 1 2 1018.0 1018.1 0.0
23/08:00pm 8.3 7.6 7.1 92 0.6 CALM 0 0 0 0 1018.1 1018.2 0.0
23/07:30pm 7.8 6.9 6.1 89 0.8 CALM 0 0 0 0 1018.0 1018.1 0.0
23/07:00pm 9.0 8.3 7.0 87 1.0 CALM 0 0 0 0 1018.0 1018.1 0.0
23/06:30pm 9.9 9.3 7.2 83 1.3 CALM 0 0 0 0 1018.0 1018.1 0.0
23/06:00pm 10.6 9.8 6.6 76 2.0 CALM 0 0 0 0 1017.7 1017.7 0.0
23/05:30pm 13.3 10.4 8.0 70 2.7 NW 13 20 7 11 1017.6 1017.6 0.0
23/05:00pm 13.5 9.6 7.1 65 3.2 NW 17 24 9 13 1017.9 1018.0 0.0
23/04:30pm 14.7 10.2 6.3 57 4.2 NW 19 32 10 17 1017.6 1017.6 0.0
23/04:00pm 16.1 13.3 7.1 55 4.6 NW 11 19 6 10 1017.4 1017.4 0.0
23/03:30pm 16.7 13.6 7.4 54 4.8 NW 13 19 7 10 1017.2 1017.3 0.0
23/03:00pm 17.7 15.4 7.4 51 5.4 NNW 9 19 5 10 1017.4 1017.4 0.0
23/02:30pm 17.3 15.8 9.0 58 4.4 NNW 7 15 4 8 1017.8 1017.8 0.0
23/02:00pm 16.3 14.8 9.0 62 3.9 NNW 7 15 4 8 1017.9 1018.0 0.0
23/01:30pm 16.3 13.1 8.5 60 4.1 NW 15 26 8 14 1018.0 1018.1 0.0
23/01:00pm 17.0 14.7 8.9 59 4.3 NNW 11 19 6 10 1018.4 1018.5 0.0
23/12:30pm 16.6 14.6 8.8 60 4.1 NNW 9 17 5 9 1018.8 1018.9 0.0
23/12:00pm 16.2 13.4 8.7 61 4.0 NW 13 26 7 14 1019.4 1019.5 0.0
23/11:30am 15.4 10.6 8.9 65 3.4 WNW 24 35 13 19 1020.2 1020.3 0.0
23/11:00am 15.5 12.2 9.4 67 3.3 NW 17 26 9 14 1020.6 1020.7 0.0
23/10:30am 15.0 12.6 10.0 72 2.7 NW 13 20 7 11 1021.0 1021.1 0.0
23/10:00am 13.5 11.9 10.3 81 1.7 NNW 9 15 5 8 1021.3 1021.4 0.0
23/09:30am 12.3 11.0 9.9 85 1.3 N 7 19 4 10 1021.7 1021.9 0.0
23/09:00am 10.0 8.6 8.8 92 0.6 N 6 9 3 5 1021.7 1021.9 0.2
23/08:30am 8.3 6.6 7.5 95 0.4 NNW 6 9 3 5 1021.8 1022.0 0.2
23/08:00am 7.2 5.3 6.8 97 0.2 N 6 15 3 8 1021.9 1022.1 0.2

Other Formats:

Comma delimited format used in spreadsheet applications
http://www.bom.gov.au/fwo/IDN60801/IDN60801.94927.axf

JavaScript Object Notation format (JSON) in row-major order
http://www.bom.gov.au/fwo/IDN60801/IDN60801.94927.json